createdAt,value
2023-03-04T00:00:46.345Z,12.00
2023-03-04T00:03:17.301Z,11.77
2023-03-04T00:05:45.033Z,11.63
2023-03-04T00:08:12.584Z,11.43
2023-03-04T00:10:40.477Z,10.63
2023-03-04T00:13:08.513Z,9.98
2023-03-04T00:15:37.080Z,11.50
2023-03-04T00:18:04.684Z,11.70
2023-03-04T00:20:32.185Z,10.98
2023-03-04T00:22:59.640Z,10.80
2023-03-04T00:25:27.212Z,12.82
2023-03-04T00:27:55.721Z,10.65
2023-03-04T00:30:23.632Z,12.45
2023-03-04T00:32:51.295Z,12.75
2023-03-04T00:35:18.970Z,14.20
2023-03-04T00:37:46.608Z,15.45
2023-03-04T00:40:14.342Z,16.00
2023-03-04T00:42:42.463Z,18.80
2023-03-04T00:45:10.431Z,22.38
2023-03-04T00:47:39.009Z,17.42
2023-03-04T00:50:07.240Z,20.42
2023-03-04T00:52:35.032Z,18.92
2023-03-04T00:55:02.504Z,18.55
2023-03-04T00:57:30.053Z,18.52
2023-03-04T00:59:57.978Z,19.70
2023-03-04T01:02:25.520Z,20.98
2023-03-04T01:04:53.874Z,20.45
2023-03-04T01:07:22.569Z,19.92
2023-03-04T01:09:50.442Z,21.75
2023-03-04T01:12:19.052Z,21.70
2023-03-04T01:14:47.262Z,20.40
2023-03-04T01:17:14.842Z,22.20
2023-03-04T01:19:42.975Z,20.75
2023-03-04T01:22:12.419Z,22.00
2023-03-04T01:24:40.574Z,22.73
2023-03-04T01:27:08.671Z,19.95
2023-03-04T01:29:36.223Z,21.92
2023-03-04T01:32:04.565Z,19.65
2023-03-04T01:34:32.559Z,22.00
2023-03-04T01:37:00.098Z,19.73
2023-03-04T01:39:28.942Z,18.77
2023-03-04T01:41:57.448Z,19.40
2023-03-04T01:44:25.539Z,21.08
2023-03-04T01:46:55.238Z,18.10
2023-03-04T01:49:25.290Z,20.27
2023-03-04T01:51:54.995Z,19.05
2023-03-04T01:54:23.332Z,18.45
2023-03-04T01:56:52.854Z,18.50
2023-03-04T01:59:25.970Z,17.85
2023-03-04T02:02:00.455Z,19.30
2023-03-04T02:04:34.488Z,19.83
2023-03-04T02:07:03.516Z,18.88
2023-03-04T02:09:33.228Z,18.92
2023-03-04T02:12:02.014Z,18.63
2023-03-04T02:14:29.747Z,19.23
2023-03-04T02:16:57.604Z,17.85
2023-03-04T02:19:37.606Z,17.95
2023-03-04T02:22:05.533Z,18.10
2023-03-04T02:24:41.777Z,18.17
2023-03-04T02:27:09.995Z,15.85
2023-03-04T02:29:37.988Z,18.65
2023-03-04T02:32:06.116Z,17.65
2023-03-04T02:34:35.918Z,20.88
2023-03-04T02:37:04.729Z,18.52
2023-03-04T02:39:40.514Z,18.38
2023-03-04T02:42:08.652Z,18.95
2023-03-04T02:44:46.180Z,19.17
2023-03-04T02:47:17.933Z,18.95
2023-03-04T02:49:47.474Z,18.55
2023-03-04T02:52:22.776Z,19.50
2023-03-04T02:54:51.300Z,17.85
2023-03-04T02:57:19.267Z,20.38
2023-03-04T02:59:51.721Z,20.33
2023-03-04T03:02:22.717Z,20.42
2023-03-04T03:04:50.596Z,19.65
2023-03-04T03:07:20.303Z,21.33
2023-03-04T03:09:49.248Z,20.02
2023-03-04T03:12:18.862Z,22.23
2023-03-04T03:14:47.405Z,18.40
2023-03-04T03:17:18.652Z,20.73
2023-03-04T03:19:47.729Z,22.15
2023-03-04T03:22:15.975Z,20.30
2023-03-04T03:24:43.664Z,21.17
2023-03-04T03:27:11.131Z,19.98
2023-03-04T03:29:40.372Z,20.77
2023-03-04T03:32:09.765Z,21.50
2023-03-04T03:34:37.909Z,19.75
2023-03-04T03:37:06.119Z,22.60
2023-03-04T03:39:33.944Z,20.08
2023-03-04T03:42:01.477Z,21.42
2023-03-04T03:44:29.111Z,20.27
2023-03-04T03:46:58.408Z,19.30
2023-03-04T03:49:26.000Z,20.23
2023-03-04T03:51:53.947Z,21.73
2023-03-04T03:54:21.958Z,18.63
2023-03-04T03:56:49.900Z,18.75
2023-03-04T03:59:18.043Z,21.17
2023-03-04T04:01:46.555Z,20.23
2023-03-04T04:04:14.148Z,19.10
2023-03-04T04:06:41.700Z,21.30
2023-03-04T04:09:09.589Z,21.23
2023-03-04T04:11:37.652Z,20.88
2023-03-04T04:14:05.968Z,22.17
2023-03-04T04:16:33.587Z,19.83
2023-03-04T04:19:01.311Z,19.55
2023-03-04T04:21:28.955Z,20.95
2023-03-04T04:23:56.935Z,19.95
2023-03-04T04:26:25.285Z,20.38
2023-03-04T04:28:52.778Z,19.80
2023-03-04T04:31:20.802Z,18.63
2023-03-04T04:33:48.338Z,20.80
2023-03-04T04:36:17.481Z,19.98
2023-03-04T04:38:45.755Z,18.63
2023-03-04T04:41:23.958Z,20.40
2023-03-04T04:43:52.536Z,20.55
2023-03-04T04:46:21.287Z,19.40
2023-03-04T04:48:49.924Z,22.05
2023-03-04T04:51:17.451Z,21.50
2023-03-04T04:53:45.413Z,21.52
2023-03-04T04:56:19.649Z,22.52
2023-03-04T04:58:48.603Z,21.73
2023-03-04T05:01:16.840Z,19.88
2023-03-04T05:03:44.450Z,22.98
2023-03-04T05:06:13.647Z,20.13
2023-03-04T05:08:41.328Z,23.23
2023-03-04T05:11:10.018Z,23.10
2023-03-04T05:13:37.636Z,22.70
2023-03-04T05:16:05.748Z,21.77
2023-03-04T05:18:33.547Z,22.10
2023-03-04T05:21:02.143Z,21.13
2023-03-04T05:23:33.995Z,22.13
2023-03-04T05:26:02.739Z,23.50
2023-03-04T05:28:30.893Z,24.10
2023-03-04T05:30:58.583Z,23.10
2023-03-04T05:33:26.459Z,23.02
2023-03-04T05:35:55.192Z,23.13
2023-03-04T05:38:23.337Z,23.00
2023-03-04T05:40:57.488Z,25.30
2023-03-04T05:43:26.617Z,23.83
2023-03-04T05:45:55.161Z,22.35
2023-03-04T05:48:23.421Z,23.10
2023-03-04T05:50:56.736Z,25.13
2023-03-04T05:53:25.026Z,29.05
2023-03-04T05:55:52.625Z,36.95
2023-03-04T05:58:20.850Z,35.05
2023-03-04T06:00:48.534Z,33.97
2023-03-04T06:03:19.281Z,31.45
2023-03-04T06:05:48.089Z,29.80
2023-03-04T06:08:16.163Z,30.10
2023-03-04T06:10:43.669Z,27.08
2023-03-04T06:13:11.943Z,24.98
2023-03-04T06:15:40.897Z,25.52
2023-03-04T06:18:09.122Z,26.02
2023-03-04T06:20:37.608Z,26.02
2023-03-04T06:23:05.912Z,26.17
2023-03-04T06:25:33.422Z,26.88
2023-03-04T06:28:00.933Z,26.83
2023-03-04T06:30:28.930Z,27.33
2023-03-04T06:32:56.456Z,27.60
2023-03-04T06:35:24.067Z,26.08
2023-03-04T06:37:52.636Z,26.33
2023-03-04T06:40:20.622Z,26.27
2023-03-04T06:42:49.112Z,27.20
2023-03-04T06:45:16.986Z,23.55
2023-03-04T06:47:45.148Z,24.88
2023-03-04T06:50:13.950Z,23.63
2023-03-04T06:52:41.517Z,25.15
2023-03-04T06:55:09.391Z,23.70
2023-03-04T06:57:36.935Z,26.20
2023-03-04T07:00:06.441Z,24.38
2023-03-04T07:02:34.897Z,23.17
2023-03-04T07:05:03.536Z,24.95
2023-03-04T07:07:31.487Z,24.00
2023-03-04T07:09:59.443Z,24.98
2023-03-04T07:12:26.964Z,23.48
2023-03-04T07:14:55.120Z,24.00
2023-03-04T07:17:22.974Z,24.05
2023-03-04T07:19:50.542Z,22.65
2023-03-04T07:22:18.100Z,22.90
2023-03-04T07:24:46.045Z,24.35
2023-03-04T07:27:13.561Z,24.63
2023-03-04T07:29:41.976Z,21.80
2023-03-04T07:32:10.423Z,21.27
2023-03-04T07:34:38.053Z,23.85
2023-03-04T07:37:05.584Z,21.77
2023-03-04T07:39:33.547Z,22.42
2023-03-04T07:42:02.093Z,21.10
2023-03-04T07:44:29.696Z,21.63
2023-03-04T07:46:57.566Z,22.10
2023-03-04T07:49:25.623Z,23.38
2023-03-04T07:51:57.215Z,25.13
2023-03-04T07:54:24.808Z,25.80
2023-03-04T07:56:53.858Z,25.02
2023-03-04T07:59:21.843Z,22.83
2023-03-04T08:01:49.750Z,24.15
2023-03-04T08:04:17.366Z,24.10
2023-03-04T08:06:45.799Z,22.58
2023-03-04T08:09:14.109Z,24.75
2023-03-04T08:11:42.765Z,23.77
2023-03-04T08:14:13.023Z,23.88
2023-03-04T08:16:40.973Z,23.70
2023-03-04T08:19:09.593Z,22.63
2023-03-04T08:21:37.980Z,23.98
2023-03-04T08:24:08.918Z,24.55
2023-03-04T08:26:42.084Z,22.85
2023-03-04T08:29:16.803Z,22.83
2023-03-04T08:31:48.774Z,23.98
2023-03-04T08:34:17.782Z,24.08
2023-03-04T08:36:45.958Z,23.85
2023-03-04T08:39:15.644Z,24.13
2023-03-04T08:41:43.331Z,21.55
2023-03-04T08:44:12.206Z,22.17
2023-03-04T08:46:41.552Z,20.70
2023-03-04T08:49:11.130Z,23.95
2023-03-04T08:51:39.102Z,23.52
2023-03-04T08:54:07.173Z,24.90
2023-03-04T08:56:35.151Z,25.30
2023-03-04T08:59:03.667Z,29.38
2023-03-04T09:01:32.099Z,24.55
2023-03-04T09:03:59.765Z,20.98
2023-03-04T09:06:27.984Z,21.60
2023-03-04T09:08:55.966Z,20.63
2023-03-04T09:11:23.607Z,22.08
2023-03-04T09:13:51.949Z,19.15
2023-03-04T09:16:19.725Z,17.50
2023-03-04T09:18:47.435Z,18.13
2023-03-04T09:21:16.490Z,19.45
2023-03-04T09:23:44.519Z,19.70
2023-03-04T09:26:25.406Z,18.48
2023-03-04T09:28:58.125Z,16.45
2023-03-04T09:31:27.006Z,17.25
2023-03-04T09:33:57.302Z,17.52
2023-03-04T09:36:25.573Z,16.85
2023-03-04T09:38:53.506Z,15.90
2023-03-04T09:41:37.282Z,16.05
2023-03-04T09:44:15.616Z,16.92
2023-03-04T09:46:46.191Z,17.13
2023-03-04T09:49:15.189Z,16.20
2023-03-04T09:51:59.629Z,16.98
2023-03-04T09:54:48.433Z,17.85
2023-03-04T09:57:45.848Z,19.08
2023-03-04T10:00:26.423Z,18.85
2023-03-04T10:03:12.094Z,18.50
2023-03-04T10:05:55.531Z,18.40
2023-03-04T10:08:42.257Z,17.70
2023-03-04T10:11:16.497Z,17.50
2023-03-04T10:14:21.567Z,17.27
2023-03-04T10:16:59.536Z,16.48
2023-03-04T10:19:57.265Z,16.13
2023-03-04T10:22:42.225Z,14.55
2023-03-04T10:25:19.306Z,15.98
2023-03-04T10:28:13.009Z,15.88
2023-03-04T10:30:51.523Z,16.60
2023-03-04T10:33:26.670Z,15.35
2023-03-04T10:36:18.259Z,16.33
2023-03-04T10:38:46.324Z,14.93
2023-03-04T10:41:26.289Z,15.52
2023-03-04T10:43:59.937Z,16.38
2023-03-04T10:48:55.823Z,18.35
2023-03-04T10:51:29.276Z,17.20
2023-03-04T10:54:10.376Z,17.23
2023-03-04T10:56:45.542Z,17.58
2023-03-04T10:59:41.359Z,18.55
2023-03-04T11:02:22.486Z,17.52
2023-03-04T11:05:17.836Z,16.90
2023-03-04T11:07:59.135Z,19.58
2023-03-04T11:10:36.334Z,18.15
2023-03-04T11:13:20.478Z,18.63
2023-03-04T11:15:58.116Z,18.00
2023-03-04T11:18:47.798Z,19.38
2023-03-04T11:21:25.357Z,19.50
2023-03-04T11:24:01.986Z,20.58
2023-03-04T11:26:41.182Z,19.90
2023-03-04T11:29:32.343Z,17.80
2023-03-04T11:32:27.655Z,17.50
2023-03-04T11:35:07.487Z,18.20
2023-03-04T11:37:46.071Z,18.02
2023-03-04T11:40:28.852Z,18.77
2023-03-04T11:43:12.553Z,20.02
2023-03-04T11:46:27.020Z,19.00
2023-03-04T11:49:29.396Z,17.92
2023-03-04T11:52:18.812Z,17.85
2023-03-04T11:54:59.084Z,17.63
2023-03-04T11:57:38.844Z,17.85
2023-03-04T12:00:25.093Z,18.40
2023-03-04T12:03:04.454Z,17.20
2023-03-04T12:05:56.954Z,17.52
2023-03-04T12:08:43.312Z,17.45
2023-03-04T12:11:45.796Z,16.67
2023-03-04T12:14:21.872Z,16.42
2023-03-04T12:17:09.715Z,17.33
2023-03-04T12:20:08.663Z,17.08
2023-03-04T12:23:02.510Z,18.05
2023-03-04T12:25:37.117Z,18.30
2023-03-04T12:28:27.769Z,17.98
2023-03-04T12:31:11.142Z,18.35
2023-03-04T12:33:49.049Z,17.25
2023-03-04T12:36:49.800Z,19.38
2023-03-04T12:39:27.511Z,18.25
2023-03-04T12:41:55.152Z,16.83
2023-03-04T12:44:23.595Z,17.00
2023-03-04T12:47:16.422Z,18.10
2023-03-04T12:49:57.038Z,17.23
2023-03-04T12:52:30.557Z,18.23
2023-03-04T12:57:47.001Z,18.00
2023-03-04T13:00:46.205Z,17.77
2023-03-04T13:03:20.403Z,18.48
2023-03-04T13:05:58.378Z,20.58
2023-03-04T13:08:38.007Z,20.50
2023-03-04T13:11:28.182Z,22.60
2023-03-04T13:14:05.918Z,20.00
2023-03-04T13:16:41.577Z,20.15
2023-03-04T13:19:44.631Z,18.42
2023-03-04T13:22:30.386Z,19.27
2023-03-04T13:24:59.780Z,20.48
2023-03-04T13:27:48.720Z,18.90
2023-03-04T13:30:33.426Z,21.77
2023-03-04T13:33:10.489Z,21.50
2023-03-04T13:35:50.342Z,19.45
2023-03-04T13:38:23.736Z,19.58
2023-03-04T13:41:00.382Z,20.00
2023-03-04T13:43:36.626Z,18.73
2023-03-04T13:46:19.525Z,21.17
2023-03-04T13:48:50.926Z,20.40
2023-03-04T13:51:45.046Z,19.70
2023-03-04T13:57:01.632Z,20.05
2023-03-04T14:00:06.504Z,20.20
2023-03-04T14:02:36.467Z,19.60
2023-03-04T14:05:04.734Z,21.30
2023-03-04T14:07:39.674Z,19.90
2023-03-04T14:10:14.987Z,19.52
2023-03-04T14:12:49.734Z,18.77
2023-03-04T14:15:24.844Z,20.08
2023-03-04T14:18:01.089Z,19.38
2023-03-04T14:20:37.142Z,19.80
2023-03-04T14:23:24.412Z,20.23
2023-03-04T14:25:52.346Z,20.98
2023-03-04T14:28:21.542Z,18.90
2023-03-04T14:30:54.761Z,20.08
2023-03-04T14:33:25.989Z,21.15
2023-03-04T14:35:57.258Z,21.42
2023-03-04T14:38:35.937Z,19.02
2023-03-04T14:41:21.611Z,20.50
2023-03-04T14:44:14.200Z,20.83
2023-03-04T14:47:04.646Z,19.38
2023-03-04T14:49:37.019Z,19.10
2023-03-04T14:52:05.226Z,21.05
2023-03-04T14:54:41.531Z,21.88
2023-03-04T14:57:29.945Z,20.83
2023-03-04T14:59:57.595Z,20.95
2023-03-04T15:02:39.731Z,20.42
2023-03-04T15:05:17.896Z,19.75
2023-03-04T15:07:58.465Z,20.05
2023-03-04T15:10:34.028Z,19.02
2023-03-04T15:13:03.966Z,18.75
2023-03-04T15:15:37.076Z,20.65
2023-03-04T15:18:26.331Z,20.92
2023-03-04T15:20:59.732Z,20.15
2023-03-04T15:23:29.556Z,18.75
2023-03-04T15:26:00.587Z,19.58
2023-03-04T15:28:37.835Z,20.98
2023-03-04T15:31:09.952Z,20.17
2023-03-04T15:33:41.511Z,21.58
2023-03-04T15:36:14.222Z,22.15
2023-03-04T15:38:50.351Z,20.88
2023-03-04T15:41:23.483Z,19.77
2023-03-04T15:43:52.944Z,19.90
2023-03-04T15:46:21.449Z,20.90
2023-03-04T15:48:49.571Z,19.67
2023-03-04T15:51:22.939Z,20.42
2023-03-04T15:53:53.442Z,20.42
2023-03-04T15:56:25.117Z,21.02
2023-03-04T15:58:56.728Z,19.98
2023-03-04T16:01:25.764Z,22.23
2023-03-04T16:03:53.957Z,22.35
2023-03-04T16:06:23.492Z,21.13
2023-03-04T16:08:52.311Z,22.83
2023-03-04T16:11:29.947Z,21.30
2023-03-04T16:13:58.671Z,22.15
2023-03-04T16:16:26.804Z,22.13
2023-03-04T16:18:54.294Z,23.10
2023-03-04T16:21:26.268Z,22.58
2023-03-04T16:23:54.774Z,21.60
2023-03-04T16:26:24.896Z,21.63
2023-03-04T16:28:53.719Z,21.42
2023-03-04T16:31:22.508Z,22.92
2023-03-04T16:33:50.446Z,22.45
2023-03-04T16:36:24.463Z,24.55
2023-03-04T16:38:55.924Z,22.92
2023-03-04T16:41:28.050Z,23.42
2023-03-04T16:43:57.061Z,22.65
2023-03-04T16:46:25.492Z,24.50
2023-03-04T16:48:54.057Z,23.25
2023-03-04T16:51:23.756Z,23.85
2023-03-04T16:54:00.300Z,22.55
2023-03-04T16:56:28.964Z,23.52
2023-03-04T16:58:56.585Z,24.55
2023-03-04T17:01:26.908Z,23.90
2023-03-04T17:03:55.822Z,23.92
2023-03-04T17:06:24.552Z,24.77
2023-03-04T17:08:52.709Z,25.70
2023-03-04T17:11:22.893Z,25.67
2023-03-04T17:13:51.608Z,26.13
2023-03-04T17:16:19.764Z,24.02
2023-03-04T17:18:47.366Z,25.95
2023-03-04T17:21:18.568Z,26.55
2023-03-04T17:23:46.685Z,26.25
2023-03-04T17:26:15.561Z,26.60
2023-03-04T17:28:43.541Z,26.45
2023-03-04T17:31:16.563Z,30.02
2023-03-04T17:33:45.408Z,28.13
2023-03-04T17:36:15.061Z,27.83
2023-03-04T17:38:43.299Z,27.17
2023-03-04T17:41:16.138Z,28.95
2023-03-04T17:43:50.635Z,27.63
2023-03-04T17:46:22.089Z,28.95
2023-03-04T17:48:52.346Z,28.77
2023-03-04T17:51:20.572Z,27.17
2023-03-04T17:53:48.571Z,28.40
2023-03-04T17:56:16.324Z,28.00
2023-03-04T17:58:44.389Z,28.77
2023-03-04T18:01:19.360Z,30.38
2023-03-04T18:03:47.848Z,28.77
2023-03-04T18:06:17.221Z,28.60
2023-03-04T18:08:45.896Z,30.23
2023-03-04T18:11:13.502Z,30.35
2023-03-04T18:13:43.472Z,29.30
2023-03-04T18:16:14.808Z,31.20
2023-03-04T18:18:43.846Z,29.52
2023-03-04T18:21:13.597Z,31.73
2023-03-04T18:23:41.845Z,31.08
2023-03-04T18:26:10.699Z,29.65
2023-03-04T18:28:38.938Z,31.88
2023-03-04T18:31:07.062Z,30.73
2023-03-04T18:33:35.123Z,30.80
2023-03-04T18:36:08.236Z,32.33
2023-03-04T18:38:35.991Z,29.67
2023-03-04T18:41:08.908Z,29.48
2023-03-04T18:43:36.900Z,31.87
2023-03-04T18:46:11.928Z,31.90
2023-03-04T18:48:43.552Z,34.00
2023-03-04T18:51:12.192Z,33.50
2023-03-04T18:53:40.862Z,35.78
2023-03-04T18:56:13.751Z,35.55
2023-03-04T18:58:44.598Z,35.05
2023-03-04T19:01:14.535Z,33.55
2023-03-04T19:03:43.767Z,35.75
2023-03-04T19:06:11.317Z,35.05
2023-03-04T19:08:39.298Z,34.53
2023-03-04T19:11:06.917Z,35.22
2023-03-04T19:13:35.314Z,35.95
2023-03-04T19:16:03.279Z,36.28
2023-03-04T19:18:30.941Z,38.35
2023-03-04T19:21:03.647Z,35.22
2023-03-04T19:23:33.829Z,38.00
2023-03-04T19:26:01.637Z,37.05
2023-03-04T19:28:29.684Z,37.42
2023-03-04T19:30:59.221Z,37.80
2023-03-04T19:33:27.599Z,35.13
2023-03-04T19:35:55.255Z,37.97
2023-03-04T19:38:23.647Z,38.40
2023-03-04T19:40:51.768Z,39.70
2023-03-04T19:43:19.487Z,37.08
2023-03-04T19:45:56.989Z,37.58
2023-03-04T19:48:25.149Z,35.78
2023-03-04T19:50:53.165Z,42.45
2023-03-04T19:53:21.188Z,39.67
2023-03-04T19:55:49.739Z,43.63
2023-03-04T19:58:18.488Z,46.15
2023-03-04T20:00:46.781Z,44.58
2023-03-04T20:03:14.907Z,41.42
2023-03-04T20:05:42.440Z,42.47
2023-03-04T20:08:09.985Z,46.22
2023-03-04T20:10:38.115Z,41.05
2023-03-04T20:13:08.581Z,41.42
2023-03-04T20:15:37.514Z,43.70
2023-03-04T20:18:05.345Z,41.65
2023-03-04T20:20:33.946Z,41.60
2023-03-04T20:23:01.690Z,42.40
2023-03-04T20:25:31.990Z,44.50
2023-03-04T20:27:59.645Z,45.17
2023-03-04T20:30:28.140Z,43.63
2023-03-04T20:32:56.856Z,43.08
2023-03-04T20:35:24.793Z,43.65
2023-03-04T20:37:52.796Z,41.63
2023-03-04T20:40:20.471Z,41.88
2023-03-04T20:42:48.639Z,42.35
2023-03-04T20:45:16.342Z,42.05
2023-03-04T20:47:43.781Z,41.58
2023-03-04T20:50:11.962Z,40.80
2023-03-04T20:52:40.288Z,41.47
2023-03-04T20:55:08.752Z,41.65
2023-03-04T20:57:36.289Z,42.38
2023-03-04T21:00:05.586Z,44.55
2023-03-04T21:02:33.669Z,39.83
2023-03-04T21:05:01.773Z,41.85
2023-03-04T21:07:29.387Z,42.30
2023-03-04T21:09:57.161Z,40.33
2023-03-04T21:12:26.194Z,39.10
2023-03-04T21:14:54.120Z,39.42
2023-03-04T21:17:24.489Z,39.55
2023-03-04T21:19:51.971Z,39.17
2023-03-04T21:22:20.524Z,41.03
2023-03-04T21:24:48.537Z,40.67
2023-03-04T21:27:17.028Z,40.85
2023-03-04T21:29:45.229Z,41.22
2023-03-04T21:32:27.095Z,43.42
2023-03-04T21:34:55.951Z,42.95
2023-03-04T21:37:25.145Z,43.83
2023-03-04T21:39:54.417Z,42.65
2023-03-04T21:42:22.672Z,44.65
2023-03-04T21:44:51.769Z,43.75
2023-03-04T21:47:21.034Z,43.63
2023-03-04T21:49:49.285Z,46.55
2023-03-04T21:52:19.640Z,48.35
2023-03-04T21:54:49.670Z,48.28
2023-03-04T21:57:18.018Z,47.72
2023-03-04T21:59:45.901Z,48.22
2023-03-04T22:02:16.955Z,49.22
2023-03-04T22:04:45.791Z,47.80
2023-03-04T22:07:14.772Z,48.78
2023-03-04T22:09:42.766Z,48.30
2023-03-04T22:12:10.606Z,48.65
2023-03-04T22:14:38.301Z,48.30
2023-03-04T22:17:07.022Z,48.67
2023-03-04T22:19:34.547Z,50.35
2023-03-04T22:22:02.668Z,49.65
2023-03-04T22:24:30.685Z,47.63
2023-03-04T22:26:59.897Z,50.63
2023-03-04T22:29:28.160Z,49.17
2023-03-04T22:31:56.788Z,48.63
2023-03-04T22:34:24.441Z,51.78
2023-03-04T22:36:52.446Z,47.28
2023-03-04T22:39:20.459Z,48.92
2023-03-04T22:41:49.033Z,48.42
2023-03-04T22:44:17.002Z,48.60
2023-03-04T22:46:44.784Z,48.25
2023-03-04T22:49:13.936Z,50.78
2023-03-04T22:51:43.296Z,51.38
2023-03-04T22:54:15.797Z,49.63
2023-03-04T22:56:44.175Z,49.17
2023-03-04T22:59:12.251Z,51.00
2023-03-04T23:01:40.543Z,49.60
2023-03-04T23:04:09.158Z,48.03
2023-03-04T23:06:37.803Z,49.15
2023-03-04T23:09:06.283Z,52.75
2023-03-04T23:11:39.461Z,53.63
2023-03-04T23:14:08.482Z,49.65
2023-03-04T23:16:41.092Z,50.97
2023-03-04T23:19:12.622Z,49.75
2023-03-04T23:21:41.202Z,51.63
2023-03-04T23:24:11.207Z,48.72
2023-03-04T23:26:41.178Z,52.90
2023-03-04T23:29:11.801Z,50.03
2023-03-04T23:31:39.913Z,53.03
2023-03-04T23:34:08.524Z,47.92
2023-03-04T23:36:38.132Z,49.45
2023-03-04T23:39:07.126Z,48.70
2023-03-04T23:41:36.117Z,49.58
2023-03-04T23:44:05.297Z,49.38
2023-03-04T23:46:33.227Z,49.75
2023-03-04T23:49:00.894Z,53.42
2023-03-04T23:51:29.794Z,53.67
2023-03-04T23:53:57.888Z,55.03
2023-03-04T23:56:29.413Z,54.20
2023-03-04T23:58:59.471Z,52.85
